Aeroporto :
LOGIN :

Iscrizione | Disclaimer

   EN    FR    IT 

 










Sommario :    VFR   VFR Marginale   IFR   IFR Intensivo   IFR Molto Intensivo
Visibilità : 
Base nubi : 
>= 8 km
>= 3000ft
5 / 8 km
1000 / 3000 ft
1500m / 5 km
500 / 1000 ft
800 / 1500m
200 / 500 ft
< 800m
< 200 ft
Simboli :   Temporali  Nebbia  Neve Forte  Precipitazioni Forti  Vento > 20 kt
SIGMETs :   Varie  Temporali  Ghiacco  Turbolenza  Onda orograficha  Ceneri Vulcaniche






- Altitudine del aeroporto : 755 ft
- Codice IATA : DRS


EDDC - Dresden Klotzsche

ULTIMO METAR :
  • 050220Z 25004KT 200V300 9999 FEW009 13/13 Q0994

METARs OBSOLETI :
  • 050150Z 25006KT 220V290 9999 FEW011 SCT020 14/13 Q0993
  • 050120Z 26006KT 210V300 9999 FEW010 SCT025 BKN049 14/13 Q0994
  • 050050Z 26007KT 230V300 9999 FEW010 BKN025 14/13 Q0994 RESHRA
  • 050020Z 26009KT 230V290 9999 SCT015 BKN029 15/13 Q0993
  • 042350Z 23004KT 9999 FEW016 BKN027 15/13 Q0993

TAF TAF EDDC
Valido dal 05 a 00 ore il 06 a 00 ore UTC


042300Z 0500/0524 21007KT 9999 BKN040
BECMG 0500/0502 27007KT
BECMG 0515/0517 21010KT
TEMPO 0518/0524 23015G25KT 3500 TSRA BKN012 SCT020CB



MetMap, La meteo Aeronautica in un colpo d'occhio ! - Copyright ORBIFLY Dicembre 2007 - Disclaimer

ORBIFLY MET'MAP TEAM :

Programmazione e sviluppo : Alexandra Zaïnal
Concezione : Baudouin d'Aumeries
Aiuto per la programmazione : Marc-Olivier Méhu
Supporto tecnico e logistico : Manuel Goepfert
Aiuto per la traduzione : Arnaldo La Scala

Contatto : metmap@orbifly.com




FONTI E CREDITI :

   NOAA